createdAt,value
2022-11-05T00:04:29.726Z,10.50
2022-11-05T00:08:59.896Z,10.38
2022-11-05T00:13:46.846Z,10.37
2022-11-05T00:18:06.647Z,9.50
2022-11-05T00:22:38.250Z,10.88
2022-11-05T00:26:53.299Z,10.18
2022-11-05T00:31:09.824Z,10.40
2022-11-05T00:35:23.888Z,9.98
2022-11-05T00:39:37.545Z,9.88
2022-11-05T00:44:10.189Z,9.20
2022-11-05T00:48:41.528Z,10.32
2022-11-05T00:52:56.805Z,10.40
2022-11-05T00:57:10.700Z,10.23
2022-11-05T01:01:25.873Z,9.73
2022-11-05T01:05:41.217Z,11.00
2022-11-05T01:09:55.036Z,10.00
2022-11-05T01:14:11.007Z,10.20
2022-11-05T01:18:26.154Z,9.82
2022-11-05T01:22:40.028Z,10.25
2022-11-05T01:26:53.691Z,10.30
2022-11-05T01:31:07.621Z,11.00
2022-11-05T01:35:22.802Z,10.00
2022-11-05T01:39:36.538Z,10.23
2022-11-05T01:43:52.248Z,10.52
2022-11-05T01:48:09.024Z,10.48
2022-11-05T01:52:26.248Z,10.52
2022-11-05T01:56:45.603Z,10.57
2022-11-05T02:00:59.416Z,10.43
2022-11-05T02:05:15.721Z,10.68
2022-11-05T02:09:35.721Z,10.97
2022-11-05T02:13:50.364Z,10.10
2022-11-05T02:18:16.726Z,11.57
2022-11-05T02:22:58.325Z,10.87
2022-11-05T02:27:19.966Z,10.35
2022-11-05T02:31:43.538Z,10.93
2022-11-05T02:36:20.680Z,10.65
2022-11-05T02:40:42.090Z,10.67
2022-11-05T02:45:02.453Z,11.07
2022-11-05T02:49:28.017Z,10.60
2022-11-05T02:53:49.843Z,10.17
2022-11-05T02:58:04.991Z,10.48
2022-11-05T03:02:19.027Z,10.07
2022-11-05T03:07:11.560Z,10.43
2022-11-05T03:11:29.741Z,10.10
2022-11-05T03:15:51.898Z,10.80
2022-11-05T03:20:16.243Z,9.80
2022-11-05T03:24:34.136Z,9.87
2022-11-05T03:28:52.920Z,9.27
2022-11-05T03:33:12.820Z,9.57
2022-11-05T03:37:30.982Z,9.37
2022-11-05T03:41:47.935Z,8.57
2022-11-05T03:46:06.144Z,8.85
2022-11-05T03:50:25.014Z,8.90
2022-11-05T03:54:39.145Z,9.18
2022-11-05T03:58:58.718Z,8.63
2022-11-05T04:03:14.462Z,8.65
2022-11-05T04:07:45.627Z,8.90
2022-11-05T04:12:17.191Z,9.55
2022-11-05T04:16:48.187Z,9.07
2022-11-05T04:21:20.714Z,9.43
2022-11-05T04:25:34.739Z,9.13
2022-11-05T04:30:05.799Z,8.60
2022-11-05T04:34:22.065Z,9.53
2022-11-05T04:38:37.237Z,9.00
2022-11-05T04:42:50.934Z,9.05
2022-11-05T04:47:05.895Z,9.27
2022-11-05T04:51:19.855Z,9.53
2022-11-05T04:55:34.955Z,9.75
2022-11-05T04:59:49.741Z,8.93
2022-11-05T05:04:03.550Z,8.83
2022-11-05T05:08:17.200Z,8.60
2022-11-05T05:12:33.445Z,8.57
2022-11-05T05:16:47.157Z,8.40
2022-11-05T05:21:21.339Z,8.73
2022-11-05T05:25:34.999Z,8.45
2022-11-05T05:29:50.697Z,8.80
2022-11-05T05:34:05.328Z,7.87
2022-11-05T05:38:18.971Z,8.35
2022-11-05T05:42:32.752Z,7.80
2022-11-05T05:46:47.807Z,8.27
2022-11-05T05:51:02.828Z,6.90
2022-11-05T05:55:16.915Z,7.50
2022-11-05T05:59:30.607Z,7.63
2022-11-05T06:03:45.701Z,7.60
2022-11-05T06:07:59.670Z,7.90
2022-11-05T06:12:13.701Z,7.63
2022-11-05T06:16:27.780Z,7.57
2022-11-05T06:20:42.872Z,7.30
2022-11-05T06:24:57.100Z,7.72
2022-11-05T06:29:11.068Z,9.10
2022-11-05T06:33:25.174Z,7.78
2022-11-05T06:37:41.083Z,7.60
2022-11-05T06:42:17.090Z,7.63
2022-11-05T06:46:28.856Z,6.93
2022-11-05T06:50:45.622Z,7.15
2022-11-05T06:55:00.716Z,7.10
2022-11-05T06:59:14.816Z,6.87
2022-11-05T07:03:28.633Z,7.78
2022-11-05T07:07:43.973Z,7.35
2022-11-05T07:11:59.115Z,8.13
2022-11-05T07:16:12.822Z,6.90
2022-11-05T07:20:33.274Z,8.10
2022-11-05T07:24:49.458Z,8.23
2022-11-05T07:29:04.618Z,7.50
2022-11-05T07:33:18.493Z,7.72
2022-11-05T07:37:32.154Z,7.72
2022-11-05T07:41:45.890Z,7.13
2022-11-05T07:46:01.289Z,6.25
2022-11-05T07:50:15.887Z,6.15
2022-11-05T07:54:29.714Z,6.10
2022-11-05T07:58:43.413Z,6.07
2022-11-05T08:03:06.653Z,5.95
2022-11-05T08:07:21.666Z,5.87
2022-11-05T08:11:35.910Z,5.88
2022-11-05T08:15:49.593Z,6.22
2022-11-05T08:20:05.339Z,6.63
2022-11-05T08:24:19.048Z,6.17
2022-11-05T08:28:33.052Z,5.97
2022-11-05T08:32:46.802Z,5.88
2022-11-05T08:37:03.296Z,6.77
2022-11-05T08:41:17.006Z,6.28
2022-11-05T08:45:32.028Z,5.88
2022-11-05T08:49:45.796Z,5.70
2022-11-05T08:54:00.940Z,3.58
2022-11-05T08:58:17.120Z,4.53
2022-11-05T09:02:31.039Z,3.97
2022-11-05T09:06:44.975Z,3.60
2022-11-05T09:11:00.132Z,3.75
2022-11-05T09:15:13.836Z,4.00
2022-11-05T09:19:27.598Z,3.90
2022-11-05T09:23:41.351Z,4.30
2022-11-05T09:28:14.655Z,3.90
2022-11-05T09:32:31.794Z,4.10
2022-11-05T09:36:45.467Z,4.10
2022-11-05T09:41:02.073Z,3.30
2022-11-05T09:45:20.249Z,3.38
2022-11-05T09:49:39.908Z,3.53
2022-11-05T09:53:54.567Z,3.30
2022-11-05T09:58:17.406Z,3.50
2022-11-05T10:02:35.801Z,3.40
2022-11-05T10:06:54.222Z,3.42
2022-11-05T10:11:12.834Z,3.22
2022-11-05T10:15:30.762Z,3.30
2022-11-05T10:19:50.569Z,3.63
2022-11-05T10:24:12.217Z,2.90
2022-11-05T10:28:28.462Z,3.30
2022-11-05T10:32:44.912Z,3.70
2022-11-05T10:37:00.239Z,3.85
2022-11-05T10:41:37.838Z,3.85
2022-11-05T10:45:57.297Z,3.10
2022-11-05T10:50:13.777Z,2.88
2022-11-05T10:54:35.236Z,3.40
2022-11-05T10:58:56.607Z,2.83
2022-11-05T11:03:34.029Z,3.13
2022-11-05T11:07:55.226Z,2.50
2022-11-05T11:12:20.402Z,3.28
2022-11-05T11:16:39.683Z,2.30
2022-11-05T11:20:53.701Z,2.47
2022-11-05T11:25:24.338Z,2.13
2022-11-05T11:29:48.952Z,2.50
2022-11-05T11:34:07.084Z,2.72
2022-11-05T11:38:32.471Z,2.67
2022-11-05T11:42:48.752Z,1.83
2022-11-05T11:47:06.380Z,1.80
2022-11-05T11:51:31.427Z,2.00
2022-11-05T11:56:02.118Z,2.42
2022-11-05T12:00:16.624Z,2.30
2022-11-05T12:04:50.996Z,2.65
2022-11-05T12:09:16.895Z,2.40
2022-11-05T12:13:51.737Z,2.70
2022-11-05T12:18:13.655Z,2.13
2022-11-05T12:22:36.759Z,2.53
2022-11-05T12:27:01.858Z,2.17
2022-11-05T12:31:24.097Z,2.10
2022-11-05T12:35:50.989Z,2.00
2022-11-05T12:40:44.831Z,2.05
2022-11-05T12:45:05.129Z,1.67
2022-11-05T12:49:33.532Z,1.80
2022-11-05T12:53:57.358Z,2.17
2022-11-05T12:58:18.918Z,2.00
2022-11-05T13:02:39.305Z,2.30
2022-11-05T13:06:58.321Z,2.67
2022-11-05T13:11:20.155Z,1.53
2022-11-05T13:15:40.274Z,1.63
2022-11-05T13:20:11.714Z,1.75
2022-11-05T13:24:38.893Z,1.67
2022-11-05T13:28:58.385Z,2.00
2022-11-05T13:33:17.403Z,1.85
2022-11-05T13:37:58.357Z,1.70
2022-11-05T13:43:03.072Z,2.23
2022-11-05T13:47:39.834Z,1.30
2022-11-05T13:51:57.350Z,2.10
2022-11-05T13:56:23.077Z,1.97
2022-11-05T14:00:43.705Z,1.70
2022-11-05T14:05:01.634Z,1.60
2022-11-05T14:09:25.132Z,2.13
2022-11-05T14:13:43.517Z,2.40
2022-11-05T14:18:00.193Z,1.90
2022-11-05T14:22:38.104Z,2.05
2022-11-05T14:27:25.359Z,1.93
2022-11-05T14:32:08.851Z,1.80
2022-11-05T14:36:35.281Z,2.00
2022-11-05T14:40:49.666Z,1.93
2022-11-05T14:45:24.239Z,2.30
2022-11-05T14:49:52.974Z,3.03
2022-11-05T14:54:14.747Z,2.30
2022-11-05T14:58:36.578Z,2.40
2022-11-05T15:02:58.351Z,2.22
2022-11-05T15:07:34.803Z,2.40
2022-11-05T15:12:09.029Z,2.60
2022-11-05T15:16:26.457Z,2.65
2022-11-05T15:20:43.303Z,2.58
2022-11-05T15:24:58.711Z,3.07
2022-11-05T15:29:33.105Z,3.28
2022-11-05T15:34:29.026Z,3.20
2022-11-05T15:39:30.939Z,3.80
2022-11-05T23:10:11.689Z,7.10
2022-11-05T23:15:08.607Z,7.30
2022-11-05T23:20:21.011Z,8.63
2022-11-05T23:25:22.260Z,7.78
2022-11-05T23:30:19.970Z,7.45
2022-11-05T23:35:14.786Z,8.37
2022-11-05T23:40:11.421Z,8.32
2022-11-05T23:45:03.646Z,8.00
2022-11-05T23:49:48.718Z,7.47
2022-11-05T23:56:13.304Z,7.20
